KBCB

Virginia Tech / Montgomery Executive Airport

Blacksburg, Virginia, USA
METAR KBCB 201415Z AUTO 10005KT 10SM SCT018 SCT025 OVC055 22/18 A3019 RMK AO2 T02190181
Observed Flight Rules
Jul-20 @ 14:15 UTC (17 minutes ago) Visual Flight Rules
Wind Visibility Clouds
100° at 5 knots 10 miles
  • Scattered at 1,800' AGL
  • Scattered at 2,500' AGL
  • Overcast at 5,500' AGL
Temperatures Readings
Current 22°C / 72°F
Dewpoint 18°C / 64°F
Humidity 78%
Altimeter 30.19" Hg
Pressure 1022 hPa
Elevation 650
METAR KBCB 201415Z AUTO 10005KT 10SM SCT018 SCT025 OVC055 22/18 A3019 RMK AO2 T02190181
Observed Flight Rules
Jul-20 @ 14:15 UTC
(17 minutes ago)
VFR
Wind Visibility
100° at 5 knots 10 miles
Clouds
  • Scattered at 1,800' AGL
  • Scattered at 2,500' AGL
  • Overcast at 5,500' AGL
Temperature Dewpoint
22°C / 72°F 18°C / 64°F
Humidity Altimeter Pressure
78% 30.19" Hg 1022 hPa